createdAt,value
2023-03-17T00:01:24.436Z,22.44
2023-03-17T00:03:51.452Z,22.38
2023-03-17T00:06:18.427Z,22.25
2023-03-17T00:08:45.340Z,22.19
2023-03-17T00:11:12.299Z,22.13
2023-03-17T00:13:39.217Z,22.13
2023-03-17T00:16:06.219Z,22.06
2023-03-17T00:18:33.185Z,22.00
2023-03-17T00:21:00.091Z,21.94
2023-03-17T00:23:26.996Z,21.88
2023-03-17T00:25:53.950Z,21.81
2023-03-17T00:28:20.857Z,21.75
2023-03-17T00:30:47.776Z,21.75
2023-03-17T00:33:14.683Z,21.69
2023-03-17T00:35:41.616Z,21.63
2023-03-17T00:38:08.573Z,21.56
2023-03-17T00:40:35.482Z,21.50
2023-03-17T00:43:02.399Z,21.50
2023-03-17T00:45:29.310Z,21.44
2023-03-17T00:47:56.202Z,21.38
2023-03-17T00:50:23.133Z,21.38
2023-03-17T00:52:50.047Z,21.31
2023-03-17T00:55:17.208Z,21.25
2023-03-17T00:57:44.114Z,21.25
2023-03-17T01:00:11.052Z,21.19
2023-03-17T01:02:37.974Z,21.19
2023-03-17T01:05:06.734Z,21.13
2023-03-17T01:07:33.944Z,21.06
2023-03-17T01:10:00.866Z,21.00
2023-03-17T01:12:27.822Z,21.00
2023-03-17T01:14:54.792Z,20.94
2023-03-17T01:17:21.712Z,20.94
2023-03-17T01:19:48.653Z,20.88
2023-03-17T01:22:15.584Z,20.88
2023-03-17T01:24:42.503Z,20.81
2023-03-17T01:27:09.421Z,20.81
2023-03-17T01:29:36.317Z,20.75
2023-03-17T01:32:03.297Z,20.69
2023-03-17T01:34:30.201Z,20.69
2023-03-17T01:36:57.100Z,20.69
2023-03-17T01:39:24.023Z,20.63
2023-03-17T01:41:50.930Z,20.56
2023-03-17T01:44:17.880Z,20.56
2023-03-17T01:46:44.798Z,20.50
2023-03-17T01:49:11.734Z,20.50
2023-03-17T01:51:38.651Z,20.50
2023-03-17T01:54:05.561Z,20.44
2023-03-17T01:56:32.489Z,20.44
2023-03-17T01:58:59.443Z,20.38
2023-03-17T02:01:26.444Z,20.38
2023-03-17T02:03:53.451Z,20.38
2023-03-17T02:06:20.398Z,20.31
2023-03-17T02:08:47.302Z,20.31
2023-03-17T02:11:14.240Z,20.25
2023-03-17T02:13:41.151Z,20.25
2023-03-17T02:16:08.107Z,20.25
2023-03-17T02:18:35.031Z,20.25
2023-03-17T02:21:01.954Z,20.25
2023-03-17T02:23:28.907Z,20.19
2023-03-17T02:25:55.835Z,20.19
2023-03-17T02:28:22.746Z,20.19
2023-03-17T02:30:49.715Z,20.19
2023-03-17T02:33:16.739Z,20.25
2023-03-17T02:35:43.657Z,20.31
2023-03-17T02:38:10.578Z,20.38
2023-03-17T02:40:37.489Z,20.44
2023-03-17T02:43:04.424Z,20.56
2023-03-17T02:45:31.324Z,20.63
2023-03-17T02:47:58.269Z,20.75
2023-03-17T02:50:25.166Z,20.75
2023-03-17T02:52:52.091Z,20.81
2023-03-17T02:55:19.054Z,20.81
2023-03-17T02:57:45.960Z,20.75
2023-03-17T03:00:12.875Z,20.75
2023-03-17T03:02:39.850Z,20.75
2023-03-17T03:05:06.804Z,20.75
2023-03-17T03:07:33.711Z,20.69
2023-03-17T03:10:00.633Z,20.69
2023-03-17T03:12:27.558Z,20.69
2023-03-17T03:14:54.463Z,20.63
2023-03-17T03:17:21.424Z,20.63
2023-03-17T03:19:48.321Z,20.56
2023-03-17T03:22:15.231Z,20.56
2023-03-17T03:24:42.174Z,20.56
2023-03-17T03:27:09.096Z,20.56
2023-03-17T03:29:36.077Z,20.50
2023-03-17T03:32:02.984Z,20.50
2023-03-17T03:34:29.881Z,20.50
2023-03-17T03:36:56.798Z,20.44
2023-03-17T03:39:23.715Z,20.44
2023-03-17T03:41:50.661Z,20.38
2023-03-17T03:44:17.560Z,20.38
2023-03-17T03:46:44.598Z,20.31
2023-03-17T03:49:11.542Z,20.31
2023-03-17T03:51:38.497Z,20.25
2023-03-17T03:54:05.411Z,20.25
2023-03-17T03:56:32.619Z,20.19
2023-03-17T03:58:59.529Z,20.13
2023-03-17T04:01:26.450Z,20.13
2023-03-17T04:03:53.371Z,20.06
2023-03-17T04:06:20.291Z,20.06
2023-03-17T04:08:47.204Z,20.00
2023-03-17T04:11:14.175Z,19.94
2023-03-17T04:13:41.115Z,19.94
2023-03-17T04:16:08.087Z,19.88
2023-03-17T04:18:35.033Z,19.81
2023-03-17T04:21:01.963Z,19.81
2023-03-17T04:23:28.918Z,19.75
2023-03-17T04:25:55.868Z,19.69
2023-03-17T04:28:22.866Z,19.63
2023-03-17T04:30:49.780Z,19.63
2023-03-17T04:33:16.709Z,19.56
2023-03-17T04:35:43.761Z,19.63
2023-03-17T04:38:10.717Z,19.69
2023-03-17T04:40:37.645Z,19.69
2023-03-17T04:43:04.585Z,19.63
2023-03-17T04:45:31.507Z,19.63
2023-03-17T04:47:58.438Z,19.63
2023-03-17T04:50:25.548Z,19.56
2023-03-17T04:52:52.452Z,19.56
2023-03-17T04:55:19.383Z,19.56
2023-03-17T04:57:46.307Z,19.50
2023-03-17T05:00:13.215Z,19.88
2023-03-17T05:02:40.168Z,24.81
2023-03-17T05:05:07.129Z,30.00
2023-03-17T05:07:34.313Z,31.88
2023-03-17T05:10:01.245Z,32.06
2023-03-17T05:12:28.210Z,31.88
2023-03-17T05:14:55.118Z,27.88
2023-03-17T05:17:22.101Z,25.50
2023-03-17T05:19:49.033Z,26.75
2023-03-17T05:22:15.952Z,30.50
2023-03-17T05:24:43.969Z,32.44
2023-03-17T05:27:10.873Z,33.06
2023-03-17T05:29:37.854Z,31.50
2023-03-17T05:32:04.761Z,28.50
2023-03-17T05:34:31.681Z,28.56
2023-03-17T05:36:58.613Z,31.69
2023-03-17T05:39:25.555Z,33.56
2023-03-17T05:41:52.476Z,34.00
2023-03-17T05:44:19.404Z,33.56
2023-03-17T05:46:46.325Z,30.88
2023-03-17T05:49:13.254Z,30.56
2023-03-17T05:51:40.172Z,32.81
2023-03-17T05:54:07.104Z,34.25
2023-03-17T05:56:34.136Z,34.81
2023-03-17T05:59:01.073Z,34.31
2023-03-17T06:01:27.989Z,34.25
2023-03-17T06:03:55.011Z,34.75
2023-03-17T06:06:22.006Z,35.25
2023-03-17T06:08:48.946Z,35.63
2023-03-17T06:11:15.846Z,35.88
2023-03-17T06:13:42.752Z,36.13
2023-03-17T06:16:09.780Z,36.38
2023-03-17T06:18:36.750Z,36.63
2023-03-17T06:21:03.706Z,36.94
2023-03-17T06:23:30.683Z,37.06
2023-03-17T06:25:57.578Z,37.06
2023-03-17T06:28:24.502Z,37.06
2023-03-17T06:30:51.470Z,37.06
2023-03-17T06:33:18.408Z,37.13
2023-03-17T06:35:45.348Z,37.13
2023-03-17T06:38:12.280Z,37.06
2023-03-17T06:40:39.215Z,37.13
2023-03-17T06:43:06.145Z,37.19
2023-03-17T06:45:33.442Z,37.06
2023-03-17T06:48:00.452Z,37.00
2023-03-17T06:50:27.390Z,37.06
2023-03-17T06:52:54.332Z,37.13
2023-03-17T06:55:21.330Z,37.19
2023-03-17T06:57:50.513Z,37.25
2023-03-17T07:00:18.070Z,37.38
2023-03-17T07:02:45.017Z,37.19
2023-03-17T07:05:11.920Z,37.06
2023-03-17T07:07:38.859Z,36.88
2023-03-17T07:10:05.751Z,36.75
2023-03-17T07:12:32.714Z,36.50
2023-03-17T07:14:59.658Z,36.31
2023-03-17T07:17:26.642Z,36.13
2023-03-17T07:19:53.578Z,36.00
2023-03-17T07:22:20.492Z,36.00
2023-03-17T07:24:47.418Z,35.88
2023-03-17T07:27:14.343Z,35.31
2023-03-17T07:29:41.256Z,35.38
2023-03-17T07:32:08.244Z,35.69
2023-03-17T07:34:35.257Z,35.94
2023-03-17T07:37:02.273Z,36.19
2023-03-17T07:39:29.226Z,36.38
2023-03-17T07:41:56.177Z,36.50
2023-03-17T07:44:23.269Z,36.69
2023-03-17T07:46:50.232Z,36.81
2023-03-17T07:49:18.190Z,36.94
2023-03-17T07:51:46.373Z,37.00
2023-03-17T07:54:14.976Z,37.13
2023-03-17T07:56:42.079Z,37.19
2023-03-17T07:59:09.061Z,37.25
2023-03-17T08:01:36.137Z,37.31
2023-03-17T08:04:03.149Z,37.38
2023-03-17T08:06:30.129Z,37.44
2023-03-17T08:08:57.044Z,37.44
2023-03-17T08:11:23.953Z,37.31
2023-03-17T08:13:50.869Z,37.25
2023-03-17T08:16:17.863Z,37.25
2023-03-17T08:18:44.789Z,37.31
2023-03-17T08:21:12.288Z,37.31
2023-03-17T08:23:39.907Z,37.38
2023-03-17T08:26:06.827Z,37.38
2023-03-17T08:28:33.796Z,37.19
2023-03-17T08:31:00.763Z,37.06
2023-03-17T08:33:27.730Z,36.94
2023-03-17T08:35:54.683Z,36.75
2023-03-17T08:38:21.607Z,36.56
2023-03-17T08:40:48.573Z,36.38
2023-03-17T08:43:15.499Z,36.19
2023-03-17T08:45:42.477Z,36.00
2023-03-17T08:48:09.437Z,35.88
2023-03-17T08:50:36.351Z,35.88
2023-03-17T08:53:03.308Z,35.88
2023-03-17T08:55:30.226Z,35.88
2023-03-17T08:57:57.154Z,35.88
2023-03-17T09:00:24.121Z,35.88
2023-03-17T09:02:51.162Z,35.88
2023-03-17T09:05:18.133Z,35.94
2023-03-17T09:07:45.181Z,36.00
2023-03-17T09:10:12.216Z,36.06
2023-03-17T09:12:39.193Z,36.19
2023-03-17T09:15:06.092Z,36.25
2023-03-17T09:17:33.018Z,36.31
2023-03-17T09:19:59.948Z,36.38
2023-03-17T09:22:26.869Z,36.44
2023-03-17T09:24:53.887Z,36.50
2023-03-17T09:27:20.869Z,36.63
2023-03-17T09:29:47.796Z,36.63
2023-03-17T09:32:14.706Z,36.75
2023-03-17T09:34:41.600Z,36.81
2023-03-17T09:37:08.545Z,36.88
2023-03-17T09:39:35.509Z,36.81
2023-03-17T09:42:02.430Z,36.75
2023-03-17T09:44:29.366Z,36.56
2023-03-17T09:46:56.320Z,36.44
2023-03-17T09:49:23.324Z,36.31
2023-03-17T09:51:50.246Z,36.19
2023-03-17T09:54:17.158Z,35.88
2023-03-17T09:56:44.088Z,35.38
2023-03-17T09:59:11.016Z,35.44
2023-03-17T10:01:38.051Z,35.56
2023-03-17T10:04:05.029Z,35.63
2023-03-17T10:06:31.971Z,35.63
2023-03-17T10:08:58.881Z,35.69
2023-03-17T10:11:25.813Z,35.75
2023-03-17T10:13:52.717Z,35.81
2023-03-17T10:16:19.774Z,35.88
2023-03-17T10:18:46.706Z,35.94
2023-03-17T10:21:13.620Z,36.00
2023-03-17T10:23:40.548Z,36.06
2023-03-17T10:26:07.475Z,36.00
2023-03-17T10:28:34.390Z,35.94
2023-03-17T10:31:01.302Z,35.81
2023-03-17T10:33:28.267Z,35.69
2023-03-17T10:35:55.260Z,35.56
2023-03-17T10:38:22.238Z,35.44
2023-03-17T10:40:49.165Z,35.44
2023-03-17T10:43:16.095Z,35.31
2023-03-17T10:45:45.220Z,34.81
2023-03-17T10:48:12.197Z,34.94
2023-03-17T10:50:39.107Z,35.06
2023-03-17T10:53:06.027Z,35.19
2023-03-17T10:55:32.964Z,35.25
2023-03-17T10:57:59.895Z,35.38
2023-03-17T11:00:26.790Z,35.44
2023-03-17T11:02:53.719Z,35.56
2023-03-17T11:05:20.628Z,35.69
2023-03-17T11:07:47.558Z,35.81
2023-03-17T11:10:14.496Z,35.94
2023-03-17T11:12:41.435Z,36.00
2023-03-17T11:15:08.383Z,36.00
2023-03-17T11:17:35.306Z,35.94
2023-03-17T11:20:02.199Z,35.81
2023-03-17T11:22:29.178Z,35.69
2023-03-17T11:24:56.205Z,35.63
2023-03-17T11:27:23.128Z,35.44
2023-03-17T11:29:50.059Z,35.31
2023-03-17T11:32:16.980Z,35.19
2023-03-17T11:34:43.904Z,35.25
2023-03-17T11:37:10.820Z,35.31
2023-03-17T11:39:37.757Z,35.31
2023-03-17T11:42:04.676Z,35.31
2023-03-17T11:44:31.595Z,35.38
2023-03-17T11:46:58.538Z,35.50
2023-03-17T11:49:25.432Z,35.56
2023-03-17T11:51:52.352Z,35.63
2023-03-17T11:54:19.264Z,35.69
2023-03-17T11:56:46.194Z,35.75
2023-03-17T11:59:13.121Z,35.81
2023-03-17T12:01:40.061Z,35.94
2023-03-17T12:04:07.051Z,36.00
2023-03-17T12:06:34.048Z,35.88
2023-03-17T12:09:01.021Z,35.69
2023-03-17T12:11:27.946Z,35.56
2023-03-17T12:13:54.861Z,35.44
2023-03-17T12:16:21.822Z,35.25
2023-03-17T12:18:48.761Z,35.13
2023-03-17T12:21:15.664Z,34.94
2023-03-17T12:23:42.555Z,34.81
2023-03-17T12:26:09.452Z,34.63
2023-03-17T12:28:36.572Z,34.50
2023-03-17T12:31:03.530Z,34.56
2023-03-17T12:33:30.445Z,34.56
2023-03-17T12:35:57.367Z,34.56
2023-03-17T12:38:24.308Z,34.56
2023-03-17T12:40:51.299Z,34.63
2023-03-17T12:43:18.255Z,34.69
2023-03-17T12:45:45.178Z,34.81
2023-03-17T12:48:12.096Z,34.81
2023-03-17T12:50:39.012Z,34.88
2023-03-17T12:53:05.925Z,34.75
2023-03-17T12:55:33.191Z,34.69
2023-03-17T12:58:00.228Z,34.56
2023-03-17T13:00:27.171Z,34.44
2023-03-17T13:02:54.175Z,34.31
2023-03-17T13:05:21.092Z,34.19
2023-03-17T13:07:48.038Z,34.06
2023-03-17T13:10:14.958Z,34.00
2023-03-17T13:12:41.926Z,34.06
2023-03-17T13:15:08.849Z,34.19
2023-03-17T13:17:35.775Z,34.19
2023-03-17T13:20:02.699Z,34.31
2023-03-17T13:22:29.624Z,34.38
2023-03-17T13:24:56.571Z,34.50
2023-03-17T13:27:23.535Z,34.63
2023-03-17T13:29:50.477Z,34.69
2023-03-17T13:32:17.417Z,34.69
2023-03-17T13:34:44.426Z,34.56
2023-03-17T13:37:11.380Z,34.50
2023-03-17T13:39:38.306Z,34.38
2023-03-17T13:42:15.535Z,34.25
2023-03-17T13:44:44.464Z,34.13
2023-03-17T13:47:11.434Z,34.00
2023-03-17T13:49:38.497Z,34.00
2023-03-17T13:52:05.481Z,34.06
2023-03-17T13:54:32.534Z,34.13
2023-03-17T13:56:59.493Z,34.19
2023-03-17T13:59:26.426Z,34.31
2023-03-17T14:01:53.400Z,34.38
2023-03-17T14:04:20.410Z,34.50
2023-03-17T14:06:47.339Z,34.63
2023-03-17T14:09:14.265Z,34.69
2023-03-17T14:11:41.183Z,34.75
2023-03-17T14:14:08.086Z,34.75
2023-03-17T14:16:35.055Z,34.69
2023-03-17T14:19:02.002Z,34.56
2023-03-17T14:21:28.909Z,34.44
2023-03-17T14:23:55.859Z,34.38
2023-03-17T14:26:22.819Z,34.25
2023-03-17T14:28:49.736Z,34.13
2023-03-17T14:31:16.741Z,34.06
2023-03-17T14:33:43.661Z,34.13
2023-03-17T14:36:12.862Z,34.25
2023-03-17T14:38:41.076Z,34.31
2023-03-17T14:41:08.007Z,34.38
2023-03-17T14:43:34.965Z,34.44
2023-03-17T14:46:02.140Z,34.50
2023-03-17T14:48:29.099Z,34.56
2023-03-17T14:50:56.184Z,34.69
2023-03-17T14:53:23.169Z,34.75
2023-03-17T14:55:50.171Z,34.63
2023-03-17T14:58:17.138Z,34.56
2023-03-17T15:00:44.103Z,34.44
2023-03-17T15:03:11.061Z,34.31
2023-03-17T15:05:38.067Z,34.19
2023-03-17T15:08:04.988Z,34.06
2023-03-17T15:10:32.045Z,33.94
2023-03-17T15:12:59.081Z,33.81
2023-03-17T15:15:26.049Z,33.63
2023-03-17T15:17:52.991Z,33.50
2023-03-17T15:20:19.936Z,33.50
2023-03-17T15:22:46.856Z,33.56
2023-03-17T15:25:13.753Z,33.56
2023-03-17T15:27:40.656Z,33.63
2023-03-17T15:30:07.571Z,33.63
2023-03-17T15:32:34.521Z,33.75
2023-03-17T15:35:01.466Z,33.81
2023-03-17T15:37:28.363Z,33.88
2023-03-17T15:39:55.267Z,33.88
2023-03-17T15:42:22.232Z,33.88
2023-03-17T15:44:49.174Z,33.75
2023-03-17T15:47:16.081Z,33.69
2023-03-17T15:49:43.025Z,33.56
2023-03-17T15:52:09.997Z,33.50
2023-03-17T15:54:36.911Z,33.56
2023-03-17T15:57:03.973Z,33.63
2023-03-17T15:59:30.911Z,33.63
2023-03-17T16:01:57.913Z,33.75
2023-03-17T16:04:24.931Z,33.88
2023-03-17T16:06:51.883Z,34.00
2023-03-17T16:09:18.819Z,34.13
2023-03-17T16:11:45.771Z,34.25
2023-03-17T16:14:12.681Z,34.38
2023-03-17T16:16:39.577Z,34.50
2023-03-17T16:19:06.514Z,34.63
2023-03-17T16:21:33.449Z,34.75
2023-03-17T16:24:00.411Z,34.88
2023-03-17T16:26:27.350Z,34.94
2023-03-17T16:28:54.281Z,34.94
2023-03-17T16:31:21.267Z,34.88
2023-03-17T16:33:48.222Z,34.75
2023-03-17T16:36:15.210Z,34.69
2023-03-17T16:38:42.183Z,34.56
2023-03-17T16:41:09.094Z,34.44
2023-03-17T16:43:36.015Z,34.38
2023-03-17T16:46:03.063Z,34.44
2023-03-17T16:48:30.099Z,34.56
2023-03-17T16:50:57.061Z,34.63
2023-03-17T16:53:23.972Z,34.69
2023-03-17T16:55:50.976Z,34.81
2023-03-17T16:58:18.037Z,34.94
2023-03-17T17:00:44.939Z,35.00
2023-03-17T17:03:12.076Z,35.00
2023-03-17T17:05:39.098Z,34.94
2023-03-17T17:08:06.007Z,34.94
2023-03-17T17:10:33.061Z,34.94
2023-03-17T17:13:00.049Z,34.88
2023-03-17T17:15:26.990Z,34.75
2023-03-17T17:17:53.913Z,34.63
2023-03-17T17:20:20.827Z,34.50
2023-03-17T17:22:47.770Z,34.38
2023-03-17T17:25:14.668Z,34.25
2023-03-17T17:27:41.627Z,34.13
2023-03-17T17:30:08.601Z,34.00
2023-03-17T17:32:35.541Z,33.94
2023-03-17T17:35:02.484Z,34.00
2023-03-17T17:37:29.408Z,34.06
2023-03-17T17:39:56.358Z,34.13
2023-03-17T17:42:23.329Z,34.19
2023-03-17T17:44:50.238Z,34.25
2023-03-17T17:47:17.145Z,34.38
2023-03-17T17:49:44.072Z,34.44
2023-03-17T17:52:10.999Z,34.44
2023-03-17T17:54:37.905Z,34.38
2023-03-17T17:57:04.854Z,34.25
2023-03-17T17:59:31.753Z,34.13
2023-03-17T18:01:58.683Z,34.06
2023-03-17T18:04:25.621Z,33.94
2023-03-17T18:06:52.569Z,33.88
2023-03-17T18:09:19.499Z,33.94
2023-03-17T18:11:46.434Z,34.19
2023-03-17T18:14:13.371Z,34.38
2023-03-17T18:16:40.426Z,34.50
2023-03-17T18:19:07.473Z,34.63
2023-03-17T18:21:34.378Z,34.75
2023-03-17T18:24:01.302Z,34.88
2023-03-17T18:26:28.216Z,35.06
2023-03-17T18:28:55.202Z,35.19
2023-03-17T18:31:22.173Z,35.19
2023-03-17T18:33:49.120Z,35.25
2023-03-17T18:36:16.045Z,35.19
2023-03-17T18:38:42.956Z,35.13
2023-03-17T18:41:09.878Z,35.06
2023-03-17T18:43:36.822Z,35.00
2023-03-17T18:46:03.827Z,34.88
2023-03-17T18:48:30.792Z,34.75
2023-03-17T18:50:57.714Z,34.63
2023-03-17T18:53:24.660Z,34.50
2023-03-17T18:55:51.565Z,34.38
2023-03-17T18:58:18.480Z,34.25
2023-03-17T19:00:45.428Z,34.06
2023-03-17T19:03:12.408Z,33.94
2023-03-17T19:05:39.425Z,33.81
2023-03-17T19:08:06.432Z,33.69
2023-03-17T19:10:33.763Z,33.75
2023-03-17T19:13:00.923Z,34.00
2023-03-17T19:15:27.855Z,34.13
2023-03-17T19:17:54.842Z,34.25
2023-03-17T19:20:21.776Z,34.38
2023-03-17T19:22:48.673Z,34.56
2023-03-17T19:25:15.597Z,34.63
2023-03-17T19:27:42.496Z,34.75
2023-03-17T19:30:09.435Z,34.94
2023-03-17T19:32:36.427Z,35.00
2023-03-17T19:35:03.382Z,35.13
2023-03-17T19:37:30.276Z,35.25
2023-03-17T19:39:57.177Z,35.25
2023-03-17T19:42:24.088Z,35.19
2023-03-17T19:44:51.056Z,35.13
2023-03-17T19:47:17.969Z,35.00
2023-03-17T19:49:44.876Z,34.94
2023-03-17T19:52:11.802Z,34.81
2023-03-17T19:54:38.728Z,34.75
2023-03-17T19:57:05.634Z,34.69
2023-03-17T19:59:32.551Z,34.81
2023-03-17T20:01:59.563Z,34.81
2023-03-17T20:04:26.549Z,34.75
2023-03-17T20:06:53.522Z,34.56
2023-03-17T20:09:20.431Z,34.31
2023-03-17T20:11:47.361Z,34.06
2023-03-17T20:14:14.266Z,33.88
2023-03-17T20:16:41.585Z,33.63
2023-03-17T20:19:08.669Z,33.44
2023-03-17T20:21:35.597Z,33.19
2023-03-17T20:24:02.526Z,32.94
2023-03-17T20:26:29.449Z,32.75
2023-03-17T20:28:56.370Z,32.50
2023-03-17T20:31:23.326Z,32.25
2023-03-17T20:33:50.250Z,32.00
2023-03-17T20:36:17.176Z,31.81
2023-03-17T20:38:44.096Z,31.56
2023-03-17T20:41:11.004Z,31.31
2023-03-17T20:43:37.988Z,31.13
2023-03-17T20:46:04.951Z,30.94
2023-03-17T20:48:31.875Z,30.75
2023-03-17T20:50:58.805Z,30.56
2023-03-17T20:53:25.732Z,30.38
2023-03-17T20:55:52.689Z,30.19
2023-03-17T20:58:19.588Z,30.00
2023-03-17T21:00:46.506Z,29.81
2023-03-17T21:03:13.494Z,29.69
2023-03-17T21:05:40.512Z,29.50
2023-03-17T21:08:07.410Z,29.31
2023-03-17T21:10:34.318Z,29.19
2023-03-17T21:13:01.278Z,29.00
2023-03-17T21:15:28.207Z,28.81
2023-03-17T21:17:55.126Z,28.69
2023-03-17T21:20:22.060Z,28.50
2023-03-17T21:22:48.997Z,28.38
2023-03-17T21:25:15.929Z,28.19
2023-03-17T21:27:42.866Z,28.06
2023-03-17T21:30:09.857Z,27.88
2023-03-17T21:32:36.787Z,27.81
2023-03-17T21:35:03.717Z,27.63
2023-03-17T21:37:30.630Z,27.50
2023-03-17T21:39:57.552Z,27.38
2023-03-17T21:42:24.524Z,27.25
2023-03-17T21:44:51.454Z,27.13
2023-03-17T21:47:18.376Z,26.94
2023-03-17T21:49:45.293Z,26.81
2023-03-17T21:52:12.252Z,26.75
2023-03-17T21:54:39.232Z,26.63
2023-03-17T21:57:06.170Z,26.50
2023-03-17T21:59:33.088Z,26.38
2023-03-17T22:02:00.026Z,26.25
2023-03-17T22:04:26.939Z,26.13
2023-03-17T22:06:53.825Z,26.00
2023-03-17T22:09:20.755Z,25.88
2023-03-17T22:11:47.698Z,25.75
2023-03-17T22:14:14.678Z,25.63
2023-03-17T22:16:41.681Z,25.63
2023-03-17T22:19:08.623Z,25.56
2023-03-17T22:21:35.568Z,25.56
2023-03-17T22:24:02.477Z,25.50
2023-03-17T22:26:29.412Z,25.44
2023-03-17T22:28:56.334Z,25.44
2023-03-17T22:31:23.334Z,25.38
2023-03-17T22:33:50.349Z,25.31
2023-03-17T22:36:17.272Z,25.25
2023-03-17T22:38:44.196Z,25.19
2023-03-17T22:41:11.113Z,25.13
2023-03-17T22:43:38.041Z,25.06
2023-03-17T22:46:05.041Z,25.00
2023-03-17T22:48:32.066Z,24.88
2023-03-17T22:50:59.001Z,24.69
2023-03-17T22:53:25.945Z,24.56
2023-03-17T22:55:52.852Z,24.38
2023-03-17T22:58:19.778Z,24.19
2023-03-17T23:00:46.695Z,24.00
2023-03-17T23:03:13.634Z,23.88
2023-03-17T23:05:40.560Z,23.69
2023-03-17T23:08:07.479Z,23.56
2023-03-17T23:10:34.392Z,23.44
2023-03-17T23:13:01.376Z,23.38
2023-03-17T23:15:28.329Z,23.25
2023-03-17T23:17:55.282Z,23.19
2023-03-17T23:20:22.236Z,23.06
2023-03-17T23:22:49.159Z,23.00
2023-03-17T23:25:16.151Z,22.94
2023-03-17T23:27:43.105Z,22.81
2023-03-17T23:30:11.731Z,22.75
2023-03-17T23:32:38.839Z,22.69
2023-03-17T23:35:05.768Z,22.63
2023-03-17T23:37:32.699Z,22.56
2023-03-17T23:39:59.679Z,22.44
2023-03-17T23:42:26.622Z,22.44
2023-03-17T23:44:53.522Z,22.38
2023-03-17T23:47:20.414Z,22.31
2023-03-17T23:49:47.370Z,22.25
2023-03-17T23:52:14.290Z,22.19
2023-03-17T23:54:41.228Z,22.13
2023-03-17T23:57:08.144Z,22.06
2023-03-17T23:59:35.060Z,22.06
